createdAt,value
2023-02-18T00:00:28.777Z,10.06
2023-02-18T00:05:52.241Z,10.30
2023-02-18T00:10:55.041Z,10.27
2023-02-18T00:16:03.198Z,10.07
2023-02-18T00:21:08.324Z,9.98
2023-02-18T00:26:14.605Z,9.12
2023-02-18T00:31:22.187Z,8.80
2023-02-18T00:36:26.007Z,9.33
2023-02-18T00:41:29.866Z,8.50
2023-02-18T00:46:33.238Z,8.61
2023-02-18T00:51:36.388Z,8.54
2023-02-18T00:56:39.196Z,8.50
2023-02-18T01:01:42.323Z,8.64
2023-02-18T01:06:45.107Z,7.71
2023-02-18T01:11:47.909Z,8.54
2023-02-18T01:16:50.699Z,7.71
2023-02-18T01:21:53.622Z,8.08
2023-02-18T01:26:56.422Z,8.15
2023-02-18T01:31:59.467Z,7.83
2023-02-18T01:37:02.531Z,8.15
2023-02-18T01:42:05.887Z,8.52
2023-02-18T01:47:08.742Z,7.76
2023-02-18T01:52:22.983Z,8.69
2023-02-18T01:57:37.696Z,7.54
2023-02-18T02:02:44.564Z,8.71
2023-02-18T02:07:51.177Z,7.55
2023-02-18T02:12:59.820Z,8.27
2023-02-18T02:18:23.420Z,7.27
2023-02-18T02:23:26.307Z,8.29
2023-02-18T02:28:47.653Z,7.70
2023-02-18T02:34:05.465Z,7.05
2023-02-18T02:39:16.385Z,7.43
2023-02-18T02:44:23.695Z,7.90
2023-02-18T02:50:04.012Z,7.13
2023-02-18T02:55:11.454Z,6.79
2023-02-18T03:00:17.266Z,6.69
2023-02-18T03:05:35.629Z,6.63
2023-02-18T03:10:59.732Z,6.58
2023-02-18T03:16:02.534Z,6.51
2023-02-18T03:21:16.371Z,6.47
2023-02-18T03:26:21.240Z,6.48
2023-02-18T03:31:28.728Z,6.50
2023-02-18T03:36:33.809Z,6.50
2023-02-18T03:41:36.709Z,6.47
2023-02-18T03:46:43.728Z,6.51
2023-02-18T03:51:47.445Z,6.50
2023-02-18T03:56:50.333Z,6.46
2023-02-18T04:01:53.238Z,6.45
2023-02-18T04:06:56.141Z,6.44
2023-02-18T04:11:59.039Z,6.41
2023-02-18T04:17:01.954Z,6.37
2023-02-18T04:22:04.743Z,6.34
2023-02-18T04:27:07.752Z,6.34
2023-02-18T04:32:10.755Z,6.29
2023-02-18T04:37:13.768Z,6.25
2023-02-18T04:42:16.873Z,6.22
2023-02-18T04:47:19.774Z,6.15
2023-02-18T04:52:22.997Z,6.11
2023-02-18T04:57:25.785Z,6.23
2023-02-18T05:02:28.690Z,7.61
2023-02-18T05:07:31.599Z,6.67
2023-02-18T05:12:34.398Z,6.24
2023-02-18T05:17:37.713Z,6.60
2023-02-18T05:22:40.622Z,7.73
2023-02-18T05:27:43.528Z,6.64
2023-02-18T05:32:46.427Z,7.94
2023-02-18T05:37:49.334Z,6.55
2023-02-18T05:42:52.132Z,7.42
2023-02-18T05:47:55.033Z,7.29
2023-02-18T05:52:57.938Z,6.29
2023-02-18T05:58:00.735Z,6.28
2023-02-18T06:03:03.671Z,7.75
2023-02-18T06:08:06.755Z,6.62
2023-02-18T06:13:09.549Z,6.14
2023-02-18T06:18:12.948Z,6.09
2023-02-18T06:23:15.974Z,7.30
2023-02-18T06:28:18.876Z,6.57
2023-02-18T06:33:21.888Z,6.14
2023-02-18T06:38:24.972Z,6.79
2023-02-18T06:43:27.993Z,7.14
2023-02-18T06:48:31.429Z,6.37
2023-02-18T06:53:34.403Z,6.08
2023-02-18T06:58:38.061Z,5.98
2023-02-18T07:03:40.981Z,5.97
2023-02-18T07:08:43.835Z,5.96
2023-02-18T07:13:46.646Z,6.95
2023-02-18T07:18:49.540Z,7.61
2023-02-18T07:23:52.659Z,6.70
2023-02-18T07:28:55.559Z,6.38
2023-02-18T07:33:58.457Z,6.28
2023-02-18T07:39:01.362Z,6.22
2023-02-18T07:44:04.893Z,6.19
2023-02-18T07:49:08.591Z,6.20
2023-02-18T07:54:11.407Z,6.28
2023-02-18T07:59:14.934Z,6.34
2023-02-18T08:04:18.055Z,6.41
2023-02-18T08:09:20.931Z,6.45
2023-02-18T08:14:23.735Z,6.52
2023-02-18T08:19:27.153Z,6.60
2023-02-18T08:24:30.261Z,6.58
2023-02-18T08:29:33.182Z,6.65
2023-02-18T08:34:36.073Z,6.72
2023-02-18T08:39:40.020Z,6.72
2023-02-18T08:44:43.105Z,6.73
2023-02-18T08:49:45.929Z,6.72
2023-02-18T08:54:48.816Z,6.77
2023-02-18T08:59:51.621Z,6.85
2023-02-18T09:04:54.517Z,6.80
2023-02-18T09:09:57.424Z,6.87
2023-02-18T09:15:00.832Z,6.89
2023-02-18T09:20:04.608Z,6.97
2023-02-18T09:25:07.958Z,7.06
2023-02-18T09:30:11.805Z,7.08
2023-02-18T09:35:14.914Z,7.19
2023-02-18T09:40:26.508Z,7.21
2023-02-18T09:45:30.331Z,7.30
2023-02-18T09:50:34.263Z,7.28
2023-02-18T09:55:41.224Z,7.34
2023-02-18T10:00:48.978Z,7.43
2023-02-18T10:05:59.625Z,7.37
2023-02-18T10:11:03.247Z,7.28
2023-02-18T10:16:07.089Z,7.25
2023-02-18T10:21:18.322Z,7.20
2023-02-18T10:26:22.039Z,7.09
2023-02-18T10:31:36.027Z,7.12
2023-02-18T10:36:51.809Z,7.15
2023-02-18T10:42:17.375Z,7.23
2023-02-18T10:47:41.742Z,7.17
2023-02-18T10:52:50.368Z,7.28
2023-02-18T10:57:55.887Z,7.43
2023-02-18T11:03:04.890Z,7.39
2023-02-18T11:08:14.654Z,7.30
2023-02-18T11:13:32.917Z,7.10
2023-02-18T11:18:43.970Z,6.99
2023-02-18T11:23:49.810Z,6.97
2023-02-18T11:29:00.777Z,7.02
2023-02-18T11:34:04.914Z,7.16
2023-02-18T11:39:18.154Z,7.21
2023-02-18T11:44:35.808Z,7.18
2023-02-18T11:49:39.765Z,7.18
2023-02-18T11:54:42.646Z,7.33
2023-02-18T11:59:45.746Z,7.53
2023-02-18T12:05:26.398Z,7.81
2023-02-18T12:10:38.980Z,7.82
2023-02-18T12:16:27.183Z,7.63
2023-02-18T12:21:44.702Z,7.38
2023-02-18T12:27:23.427Z,7.14
2023-02-18T12:32:32.266Z,7.05
2023-02-18T12:37:46.951Z,7.00
2023-02-18T12:43:04.397Z,7.00
2023-02-18T12:48:24.093Z,7.07
2023-02-18T12:53:38.462Z,7.06
2023-02-18T12:59:15.934Z,7.06
2023-02-18T13:04:24.144Z,6.99
2023-02-18T13:09:51.851Z,6.97
2023-02-18T13:15:14.006Z,6.99
2023-02-18T13:20:26.433Z,7.06
2023-02-18T13:25:33.141Z,7.10
2023-02-18T13:31:03.480Z,7.09
2023-02-18T13:36:25.001Z,7.11
2023-02-18T13:41:28.185Z,7.13
2023-02-18T13:46:30.983Z,7.13
2023-02-18T13:51:48.852Z,7.10
2023-02-18T13:57:13.365Z,7.09
2023-02-18T14:02:25.858Z,7.12
2023-02-18T14:07:41.689Z,7.08
2023-02-18T14:12:44.666Z,7.05
2023-02-18T14:18:14.921Z,7.08
2023-02-18T14:23:24.164Z,7.01
2023-02-18T14:28:34.133Z,6.96
2023-02-18T14:33:38.210Z,6.91
2023-02-18T14:38:59.288Z,6.83
2023-02-18T14:44:05.161Z,6.78
2023-02-18T14:49:23.434Z,6.72
2023-02-18T14:54:29.403Z,6.61
2023-02-18T14:59:37.696Z,6.55
2023-02-18T15:04:40.518Z,6.49
2023-02-18T15:09:49.604Z,6.43
2023-02-18T15:14:55.203Z,6.40
2023-02-18T15:20:08.308Z,6.34
2023-02-18T15:25:14.065Z,6.27
2023-02-18T15:30:27.960Z,6.22
2023-02-18T15:35:33.242Z,6.17
2023-02-18T15:40:40.591Z,6.08
2023-02-18T15:45:46.768Z,6.04
2023-02-18T15:50:53.154Z,6.00
2023-02-18T15:55:56.628Z,5.96
2023-02-18T16:01:06.046Z,5.88
2023-02-18T16:06:27.321Z,5.82
2023-02-18T16:11:37.677Z,5.75
2023-02-18T16:16:41.049Z,5.70
2023-02-18T16:21:47.030Z,5.75
2023-02-18T16:26:51.883Z,8.00
2023-02-18T16:31:54.955Z,7.07
2023-02-18T16:37:17.144Z,6.20
2023-02-18T16:42:19.943Z,6.07
2023-02-18T16:47:22.858Z,8.92
2023-02-18T16:52:25.760Z,7.71
2023-02-18T16:57:28.655Z,6.44
2023-02-18T17:02:31.865Z,6.32
2023-02-18T17:07:34.779Z,8.63
2023-02-18T17:12:42.598Z,7.15
2023-02-18T17:17:45.593Z,7.16
2023-02-18T17:22:48.500Z,8.46
2023-02-18T17:27:51.472Z,7.02
2023-02-18T17:32:54.460Z,8.56
2023-02-18T17:37:57.531Z,7.45
2023-02-18T17:43:00.318Z,8.25
2023-02-18T17:48:03.955Z,7.61
2023-02-18T17:53:07.355Z,8.28
2023-02-18T17:58:11.642Z,8.28
2023-02-18T18:03:14.904Z,7.08
2023-02-18T18:08:18.874Z,8.37
2023-02-18T18:13:27.978Z,6.98
2023-02-18T18:18:30.880Z,8.05
2023-02-18T18:23:34.311Z,7.03
2023-02-18T18:28:37.736Z,8.15
2023-02-18T18:33:42.370Z,7.16
2023-02-18T18:38:45.679Z,8.27
2023-02-18T18:43:49.862Z,6.99
2023-02-18T18:48:52.915Z,7.97
2023-02-18T18:53:55.739Z,6.83
2023-02-18T18:58:58.621Z,7.85
2023-02-18T19:04:01.562Z,6.64
2023-02-18T19:09:04.526Z,8.06
2023-02-18T19:14:11.735Z,6.64
2023-02-18T19:19:14.631Z,8.64
2023-02-18T19:24:17.546Z,6.74
2023-02-18T19:29:23.615Z,7.57
2023-02-18T19:34:26.425Z,6.77
2023-02-18T19:39:29.523Z,7.61
2023-02-18T19:44:34.393Z,6.78
2023-02-18T19:49:37.588Z,7.83
2023-02-18T19:54:40.798Z,6.42
2023-02-18T19:59:44.556Z,7.90
2023-02-18T20:04:47.733Z,6.65
2023-02-18T20:09:54.694Z,8.34
2023-02-18T20:14:57.738Z,6.71
2023-02-18T20:20:00.645Z,8.58
2023-02-18T20:25:04.040Z,8.05
2023-02-18T20:30:07.140Z,6.70
2023-02-18T20:35:09.973Z,8.66
2023-02-18T20:40:12.974Z,6.63
2023-02-18T20:45:15.983Z,8.24
2023-02-18T20:50:19.002Z,7.72
2023-02-18T20:55:22.615Z,7.56
2023-02-18T21:00:25.510Z,8.00
2023-02-18T21:05:28.417Z,7.52
2023-02-18T21:10:31.421Z,7.82
2023-02-18T21:15:37.398Z,7.92
2023-02-18T21:20:40.498Z,7.50
2023-02-18T21:25:43.407Z,7.55
2023-02-18T21:30:46.302Z,7.70
2023-02-18T21:35:49.314Z,7.21
2023-02-18T21:40:52.211Z,7.45
2023-02-18T21:45:55.119Z,6.89
2023-02-18T21:51:01.673Z,7.98
2023-02-18T21:56:12.162Z,7.30
2023-02-18T22:01:15.135Z,8.19
2023-02-18T22:06:18.015Z,6.92
2023-02-18T22:11:21.005Z,8.54
2023-02-18T22:16:25.891Z,6.74
2023-02-18T22:21:29.678Z,7.89
2023-02-18T22:26:33.001Z,6.37
2023-02-18T22:31:35.853Z,8.10
2023-02-18T22:36:39.914Z,6.67
2023-02-18T22:41:43.440Z,7.18
2023-02-18T22:46:46.763Z,6.96
2023-02-18T22:51:52.731Z,7.10
2023-02-18T22:56:55.649Z,6.88
2023-02-18T23:01:58.533Z,7.12
2023-02-18T23:07:01.451Z,7.05
2023-02-18T23:12:05.406Z,6.92
2023-02-18T23:17:14.772Z,7.05
2023-02-18T23:22:32.388Z,6.66
2023-02-18T23:27:35.385Z,7.01
2023-02-18T23:32:39.331Z,7.04
2023-02-18T23:38:01.218Z,6.96
2023-02-18T23:43:04.157Z,7.35
2023-02-18T23:48:07.068Z,6.98
2023-02-18T23:53:09.969Z,6.72
2023-02-18T23:58:12.767Z,7.46
